YAYE/AYQ METAR and TAF weather

Enter ICAO airport designator
Station Type Date Time Source
YAYE METAR 2020/06/06 19:00 UTC NOAA

YAYE 061900Z AUTO 13006KT 9999 // NCD 06/M04 Q1023


Station Type Date Time Source
YAYE Decoded METAR 2020/06/06 19:00 UTC NOAA

Ayers Rock, Australia (YAYE) 25-11S 130-58E
Jun 06, 2020 - 03:00 PM EDT / 2020.06.06 1900 UTC
Wind: from the SE (130 degrees) at 7 MPH (6 KT):0
Visibility: greater than 7 mile(s):0
Temperature: 42 F (6 C)
Dew Point: 24 F (-4 C)
Relative Humidity: 48%
Pressure (altimeter): 30.21 in. Hg (1023 hPa)
ob: YAYE 061900Z AUTO 13006KT 9999 // NCD 06/M04 Q1023
cycle: 19

Station Type Date Time Source
YAYE TAF UTC NOAA

Error!

Example: see airport list